createdAt,value
2019-06-01T00:00:11.991Z,20.30
2019-06-01T00:02:40.807Z,21.43
2019-06-01T00:05:10.542Z,18.93
2019-06-01T00:07:39.283Z,20.20
2019-06-01T00:10:09.854Z,22.07
2019-06-01T00:12:39.294Z,24.63
2019-06-01T00:15:09.087Z,19.50
2019-06-01T00:17:37.837Z,17.43
2019-06-01T00:20:06.603Z,18.33
2019-06-01T00:22:35.412Z,22.17
2019-06-01T00:25:06.924Z,27.00
2019-06-01T00:27:35.667Z,20.80
2019-06-01T00:30:06.826Z,15.63
2019-06-01T00:32:35.573Z,18.23
2019-06-01T00:35:06.824Z,17.27
2019-06-01T00:37:35.722Z,17.10
2019-06-01T00:40:07.102Z,23.77
2019-06-01T00:42:36.071Z,20.70
2019-06-01T00:45:07.265Z,19.17
2019-06-01T00:47:36.018Z,19.30
2019-06-01T00:50:08.221Z,23.73
2019-06-01T00:52:36.987Z,21.57
2019-06-01T00:55:07.194Z,23.63
2019-06-01T00:57:36.098Z,20.83
2019-06-01T01:00:08.161Z,20.62
2019-06-01T01:02:36.972Z,22.42
2019-06-01T01:05:14.562Z,22.90
2019-06-01T01:07:44.529Z,22.57
2019-06-01T01:10:14.179Z,25.67
2019-06-01T01:13:00.924Z,24.13
2019-06-01T01:15:29.768Z,27.60
2019-06-01T01:17:58.511Z,29.93
2019-06-01T01:20:27.263Z,28.30
2019-06-01T01:22:56.479Z,25.77
2019-06-01T01:25:25.896Z,25.53
2019-06-01T01:27:54.864Z,29.80
2019-06-01T01:30:23.687Z,30.03
2019-06-01T01:32:53.591Z,26.87
2019-06-01T01:35:22.924Z,26.60
2019-06-01T01:37:52.012Z,29.03
2019-06-01T01:40:20.819Z,31.87
2019-06-01T01:42:50.563Z,30.97
2019-06-01T01:45:19.946Z,37.20
2019-06-01T01:47:49.425Z,32.67
2019-06-01T01:50:19.354Z,33.90
2019-06-01T01:52:48.189Z,38.80
2019-06-01T01:55:16.929Z,34.48
2019-06-01T01:57:45.811Z,32.73
2019-06-01T02:00:15.972Z,34.30
2019-06-01T02:02:46.204Z,33.27
2019-06-01T02:05:14.996Z,35.80
2019-06-01T02:07:43.752Z,30.10
2019-06-01T02:10:12.638Z,35.07
2019-06-01T02:12:41.294Z,31.90
2019-06-01T02:15:10.832Z,40.67
2019-06-01T02:17:39.714Z,33.30
2019-06-01T02:20:08.573Z,42.50
2019-06-01T02:22:37.315Z,51.53
2019-06-01T02:25:07.557Z,48.07
2019-06-01T02:27:36.314Z,50.33
2019-06-01T02:30:07.825Z,57.27
2019-06-01T02:32:36.706Z,50.13
2019-06-01T02:35:08.751Z,54.20
2019-06-01T02:37:37.497Z,47.30
2019-06-01T02:40:08.193Z,48.43
2019-06-01T02:42:36.934Z,45.93
2019-06-01T02:45:11.062Z,65.67
2019-06-01T02:47:39.954Z,70.17
2019-06-01T02:50:10.220Z,65.63
2019-06-01T02:52:39.263Z,67.40
2019-06-01T02:55:10.985Z,61.27
2019-06-01T02:57:39.730Z,51.97
2019-06-01T03:00:09.984Z,50.57
2019-06-01T03:02:39.702Z,46.63
2019-06-01T03:05:08.453Z,49.63
2019-06-01T03:07:39.852Z,62.27
2019-06-01T03:10:09.010Z,56.87
2019-06-01T03:12:40.692Z,53.90
2019-06-01T03:15:09.454Z,51.47
2019-06-01T03:17:41.132Z,52.62
2019-06-01T03:20:10.089Z,48.00
2019-06-01T03:22:40.958Z,56.97
2019-06-01T03:25:09.831Z,57.65
2019-06-01T03:27:40.166Z,59.97
2019-06-01T03:30:14.540Z,68.02
2019-06-01T03:32:41.817Z,60.73
2019-06-01T03:35:13.095Z,48.95
2019-06-01T03:37:42.066Z,58.98
2019-06-01T03:40:19.717Z,63.40
2019-06-01T03:42:41.299Z,65.13
2019-06-01T03:45:10.238Z,62.23
2019-06-01T03:47:38.992Z,70.83
2019-06-01T03:50:09.136Z,68.30
2019-06-01T03:52:38.428Z,64.73
2019-06-01T03:55:07.806Z,64.03
2019-06-01T03:57:37.354Z,63.50
2019-06-01T04:00:09.410Z,76.23
2019-06-01T04:02:38.986Z,71.37
2019-06-01T04:05:07.860Z,69.17
2019-06-01T04:07:38.907Z,78.00
2019-06-01T04:10:09.820Z,72.93
2019-06-01T04:12:39.041Z,69.63
2019-06-01T04:15:12.801Z,74.63
2019-06-01T04:17:38.974Z,60.70
2019-06-01T04:20:08.257Z,47.87
2019-06-01T04:22:37.061Z,47.60
2019-06-01T04:25:08.299Z,50.53
2019-06-01T04:27:37.175Z,41.87
2019-06-01T04:30:09.426Z,42.73
2019-06-01T04:32:49.415Z,34.73
2019-06-01T04:35:09.072Z,35.97
2019-06-01T04:37:37.917Z,37.57
2019-06-01T04:40:07.530Z,39.87
2019-06-01T04:42:36.359Z,34.20
2019-06-01T04:45:10.789Z,37.90
2019-06-01T04:47:39.652Z,32.40
2019-06-01T04:50:08.856Z,33.00
2019-06-01T04:52:37.591Z,25.50
2019-06-01T04:55:08.940Z,29.80
2019-06-01T04:57:38.013Z,34.10
2019-06-01T05:00:12.623Z,32.47
2019-06-01T05:02:38.419Z,31.00
2019-06-01T05:05:09.348Z,32.37
2019-06-01T05:07:38.481Z,31.93
2019-06-01T05:10:07.834Z,41.00
2019-06-01T05:12:38.054Z,32.77
2019-06-01T05:15:10.116Z,29.53
2019-06-01T05:17:39.008Z,25.83
2019-06-01T05:20:08.267Z,31.53
2019-06-01T05:22:37.471Z,28.43
2019-06-01T05:25:09.033Z,27.43
2019-06-01T05:27:38.461Z,24.73
2019-06-01T05:30:09.482Z,23.70
2019-06-01T05:32:38.304Z,23.60
2019-06-01T05:35:09.660Z,24.23
2019-06-01T05:37:40.426Z,23.37
2019-06-01T05:40:12.441Z,22.03
2019-06-01T05:42:41.652Z,18.00
2019-06-01T05:45:11.377Z,24.40
2019-06-01T05:47:40.200Z,20.17
2019-06-01T05:50:10.601Z,24.57
2019-06-01T05:52:39.838Z,17.80
2019-06-01T05:55:10.287Z,18.30
2019-06-01T05:57:39.690Z,18.53
2019-06-01T06:00:11.326Z,24.73
2019-06-01T06:02:40.200Z,17.30
2019-06-01T06:05:10.609Z,16.63
2019-06-01T06:07:39.808Z,16.53
2019-06-01T06:10:11.843Z,14.30
2019-06-01T06:12:40.896Z,14.30
2019-06-01T06:15:11.349Z,15.30
2019-06-01T06:17:40.499Z,14.93
2019-06-01T06:20:09.273Z,17.10
2019-06-01T06:22:41.134Z,14.50
2019-06-01T06:25:08.552Z,12.17
2019-06-01T06:27:37.290Z,13.10
2019-06-01T06:30:08.050Z,14.27
2019-06-01T06:32:36.719Z,15.40
2019-06-01T06:35:07.265Z,12.70
2019-06-01T06:37:37.625Z,17.60
2019-06-01T06:40:09.547Z,14.97
2019-06-01T06:42:38.303Z,13.07
2019-06-01T06:45:09.773Z,15.20
2019-06-01T06:47:38.524Z,15.10
2019-06-01T06:50:08.426Z,13.30
2019-06-01T06:52:37.348Z,15.00
2019-06-01T06:55:07.336Z,13.63
2019-06-01T06:57:36.075Z,12.40
2019-06-01T07:00:09.663Z,13.00
2019-06-01T07:02:38.456Z,15.13
2019-06-01T07:05:08.563Z,11.60
2019-06-01T07:07:37.318Z,9.30
2019-06-01T07:10:07.771Z,15.40
2019-06-01T07:12:36.539Z,10.50
2019-06-01T07:15:07.682Z,9.13
2019-06-01T07:17:36.434Z,6.90
2019-06-01T07:20:07.631Z,8.77
2019-06-01T07:22:36.512Z,8.40
2019-06-01T07:25:06.545Z,10.23
2019-06-01T07:27:35.292Z,8.07
2019-06-01T07:30:09.322Z,10.70
2019-06-01T07:32:38.061Z,8.67
2019-06-01T07:35:08.335Z,8.60
2019-06-01T07:37:37.093Z,8.67
2019-06-01T07:40:12.963Z,7.77
2019-06-01T07:42:38.478Z,8.40
2019-06-01T07:45:09.204Z,12.83
2019-06-01T07:47:37.926Z,10.23
2019-06-01T07:50:09.785Z,12.83
2019-06-01T07:52:38.733Z,10.63
2019-06-01T07:55:14.185Z,14.77
2019-06-01T07:57:44.236Z,11.50
2019-06-01T08:00:14.012Z,13.33
2019-06-01T08:02:42.821Z,9.93
2019-06-01T08:05:11.657Z,10.53
2019-06-01T08:07:40.435Z,10.47
2019-06-01T08:10:09.298Z,12.50
2019-06-01T08:12:38.473Z,14.83
2019-06-01T08:15:12.031Z,13.03
2019-06-01T08:17:40.780Z,14.95
2019-06-01T08:20:11.042Z,10.63
2019-06-01T08:22:41.426Z,11.80
2019-06-01T08:25:10.161Z,13.93
2019-06-01T08:27:41.538Z,14.20
2019-06-01T08:30:12.911Z,16.83
2019-06-01T08:32:42.706Z,14.33
2019-06-01T08:35:11.964Z,11.17
2019-06-01T08:37:40.857Z,17.43
2019-06-01T08:40:10.034Z,15.13
2019-06-01T08:42:42.550Z,13.03
2019-06-01T08:45:11.884Z,12.00
2019-06-01T08:47:40.841Z,14.60
2019-06-01T08:50:09.833Z,17.55
2019-06-01T08:52:40.321Z,15.47
2019-06-01T08:55:09.656Z,13.47
2019-06-01T08:57:38.422Z,17.30
2019-06-01T09:00:10.299Z,14.87
2019-06-01T09:02:39.445Z,23.00
2019-06-01T09:05:23.080Z,15.93
2019-06-01T09:07:38.868Z,17.60
2019-06-01T09:10:11.408Z,17.47
2019-06-01T09:12:40.150Z,17.37
2019-06-01T09:15:09.615Z,17.30
2019-06-01T09:17:38.443Z,15.40
2019-06-01T09:20:08.485Z,16.47
2019-06-01T09:22:37.259Z,14.37
2019-06-01T09:25:06.794Z,16.07
2019-06-01T09:27:36.102Z,17.80
2019-06-01T09:30:10.712Z,15.07
2019-06-01T09:32:39.492Z,15.00
2019-06-01T09:35:08.627Z,12.70
2019-06-01T09:37:39.220Z,14.80
2019-06-01T09:40:08.877Z,14.30
2019-06-01T09:42:52.149Z,13.00
2019-06-01T09:45:34.567Z,14.25
2019-06-01T09:48:16.224Z,11.77
2019-06-01T09:50:54.583Z,16.13
2019-06-01T09:53:23.864Z,14.43
2019-06-01T09:56:03.315Z,13.07
2019-06-01T09:58:54.193Z,14.07
2019-06-01T10:01:37.195Z,15.70
2019-06-01T10:04:21.440Z,16.30
2019-06-01T10:06:51.277Z,9.10
2019-06-01T10:09:20.025Z,13.58
2019-06-01T10:11:48.794Z,11.67
2019-06-01T10:14:17.581Z,13.60
2019-06-01T10:16:46.358Z,10.70
2019-06-01T10:19:15.421Z,13.98
2019-06-01T10:21:44.282Z,11.00
2019-06-01T10:24:13.304Z,10.93
2019-06-01T10:26:42.119Z,12.67
2019-06-01T10:29:11.837Z,11.30
2019-06-01T10:31:41.652Z,16.27
2019-06-01T10:34:11.712Z,13.90
2019-06-01T10:36:43.499Z,11.77
2019-06-01T10:39:12.261Z,12.90
2019-06-01T10:41:51.837Z,12.23
2019-06-01T10:44:21.939Z,13.77
2019-06-01T10:46:50.830Z,13.90
2019-06-01T10:49:19.928Z,13.32
2019-06-01T10:51:49.216Z,14.53
2019-06-01T10:54:19.808Z,12.37
2019-06-01T10:56:48.676Z,13.73
2019-06-01T10:59:18.336Z,14.40
2019-06-01T11:01:47.086Z,13.13
2019-06-01T11:04:15.874Z,16.43
2019-06-01T11:06:48.635Z,15.90
2019-06-01T11:09:15.950Z,10.40
2019-06-01T11:11:53.714Z,10.03
2019-06-01T11:14:31.281Z,13.35
2019-06-01T11:17:08.697Z,15.43
2019-06-01T11:19:57.814Z,12.47
2019-06-01T11:22:27.871Z,10.90
2019-06-01T11:24:56.867Z,12.57
2019-06-01T11:27:26.482Z,11.90
2019-06-01T11:29:55.701Z,11.83
2019-06-01T11:32:24.470Z,15.10
2019-06-01T11:34:53.350Z,14.90
2019-06-01T11:37:22.225Z,14.30
2019-06-01T11:39:51.036Z,22.87
2019-06-01T11:42:20.239Z,15.43
2019-06-01T11:44:49.389Z,12.40
2019-06-01T11:47:18.332Z,14.10
2019-06-01T11:50:09.955Z,16.10
2019-06-01T11:52:57.331Z,13.53
2019-06-01T11:55:48.166Z,11.73
2019-06-01T11:58:39.398Z,13.23
2019-06-01T12:01:22.793Z,9.63
2019-06-01T12:04:06.744Z,9.50
2019-06-01T12:06:37.710Z,10.73
2019-06-01T12:09:09.653Z,11.37
2019-06-01T12:11:39.808Z,10.30
2019-06-01T12:14:08.941Z,11.20
2019-06-01T12:16:38.302Z,12.53
2019-06-01T12:19:07.506Z,11.53
2019-06-01T12:21:37.051Z,11.77
2019-06-01T12:24:06.514Z,13.00
2019-06-01T12:26:37.251Z,12.93
2019-06-01T12:29:06.543Z,11.77
2019-06-01T12:31:35.327Z,12.10
2019-06-01T12:34:04.274Z,12.83
2019-06-01T12:36:33.108Z,10.30
2019-06-01T12:39:01.857Z,10.10
2019-06-01T12:41:30.598Z,9.53
2019-06-01T12:44:09.956Z,10.70
2019-06-01T12:46:40.058Z,11.03
2019-06-01T12:49:08.867Z,11.23
2019-06-01T12:51:37.781Z,10.10
2019-06-01T12:54:10.633Z,8.67
2019-06-01T12:56:40.618Z,17.90
2019-06-01T12:59:09.781Z,8.63
2019-06-01T13:01:38.542Z,10.50
2019-06-01T13:04:07.325Z,9.40
2019-06-01T13:06:36.073Z,10.73
2019-06-01T13:09:08.261Z,12.10
2019-06-01T13:11:37.535Z,10.03
2019-06-01T13:14:06.449Z,8.97
2019-06-01T13:16:35.215Z,8.33
2019-06-01T13:19:03.982Z,9.73
2019-06-01T13:21:32.897Z,10.07
2019-06-01T13:24:01.642Z,10.17
2019-06-01T13:26:30.431Z,10.77
2019-06-01T13:28:59.618Z,8.17
2019-06-01T13:31:28.407Z,8.20
2019-06-01T13:33:57.151Z,9.03
2019-06-01T13:36:26.031Z,9.30
2019-06-01T13:38:54.904Z,14.40
2019-06-01T13:41:23.824Z,8.03
2019-06-01T13:43:53.551Z,8.90
2019-06-01T13:46:22.693Z,10.28
2019-06-01T13:48:52.677Z,7.90
2019-06-01T13:51:22.046Z,8.10
2019-06-01T13:53:50.856Z,6.67
2019-06-01T13:56:19.606Z,7.20
2019-06-01T13:58:48.358Z,9.60
2019-06-01T14:01:17.398Z,10.17
2019-06-01T14:03:47.191Z,7.13
2019-06-01T14:06:16.061Z,9.20
2019-06-01T14:08:45.049Z,6.73
2019-06-01T14:11:13.928Z,11.13
2019-06-01T14:13:42.771Z,12.20
2019-06-01T14:16:12.183Z,7.90
2019-06-01T14:18:43.012Z,6.77
2019-06-01T14:21:12.397Z,9.50
2019-06-01T14:23:41.328Z,8.90
2019-06-01T14:26:10.106Z,8.20
2019-06-01T14:28:39.248Z,10.50
2019-06-01T14:31:08.568Z,10.67
2019-06-01T14:33:37.322Z,6.03
2019-06-01T14:36:06.130Z,8.07
2019-06-01T14:38:46.612Z,7.23
2019-06-01T14:41:05.442Z,7.90
2019-06-01T14:43:34.529Z,8.30
2019-06-01T14:46:03.328Z,5.70
2019-06-01T14:48:32.267Z,7.17
2019-06-01T14:51:01.494Z,5.30
2019-06-01T14:53:30.951Z,7.73
2019-06-01T14:56:02.873Z,7.70
2019-06-01T14:58:32.941Z,9.43
2019-06-01T15:01:02.062Z,10.37
2019-06-01T15:03:30.882Z,6.27
2019-06-01T15:05:59.689Z,6.33
2019-06-01T15:08:28.468Z,9.10
2019-06-01T15:10:58.786Z,11.20
2019-06-01T15:13:27.686Z,8.97
2019-06-01T15:15:57.578Z,5.80
2019-06-01T15:18:27.183Z,8.77
2019-06-01T15:20:55.980Z,7.37
2019-06-01T15:23:25.025Z,5.90
2019-06-01T15:25:54.570Z,9.40
2019-06-01T15:28:24.103Z,7.63
2019-06-01T15:30:52.997Z,6.77
2019-06-01T15:33:21.783Z,8.15
2019-06-01T15:35:52.218Z,7.77
2019-06-01T15:38:21.205Z,6.33
2019-06-01T15:40:51.738Z,10.53
2019-06-01T15:43:21.745Z,6.60
2019-06-01T15:45:51.210Z,7.90
2019-06-01T15:48:23.254Z,9.90
2019-06-01T15:50:51.988Z,5.27
2019-06-01T15:53:20.759Z,6.67
2019-06-01T15:55:49.550Z,4.33
2019-06-01T15:58:18.372Z,6.53
2019-06-01T16:00:47.880Z,5.87
2019-06-01T16:03:16.615Z,6.85
2019-06-01T16:05:45.385Z,5.00
2019-06-01T16:08:14.192Z,5.60
2019-06-01T16:10:42.959Z,6.73
2019-06-01T16:13:11.703Z,9.10
2019-06-01T16:15:40.490Z,8.53
2019-06-01T16:18:09.249Z,4.83
2019-06-01T16:20:38.039Z,9.40
2019-06-01T16:23:09.530Z,4.20
2019-06-01T16:25:39.191Z,5.60
2019-06-01T16:28:08.182Z,7.30
2019-06-01T16:30:41.654Z,6.17
2019-06-01T16:33:10.707Z,4.58
2019-06-01T16:35:39.575Z,3.00
2019-06-01T16:38:08.377Z,5.13
2019-06-01T16:40:37.168Z,4.90
2019-06-01T16:43:06.007Z,5.60
2019-06-01T16:45:34.775Z,4.50
2019-06-01T16:48:03.902Z,6.97
2019-06-01T16:50:32.728Z,4.20
2019-06-01T16:53:02.132Z,6.40
2019-06-01T16:55:31.678Z,8.73
2019-06-01T16:58:03.733Z,8.63
2019-06-01T17:00:31.671Z,5.73
2019-06-01T17:03:00.645Z,8.90
2019-06-01T17:05:29.505Z,5.17
2019-06-01T17:07:58.740Z,4.40
2019-06-01T17:10:28.296Z,6.47
2019-06-01T17:12:57.037Z,4.07
2019-06-01T17:15:26.243Z,8.60
2019-06-01T17:17:55.089Z,6.57
2019-06-01T17:20:38.989Z,4.87
2019-06-01T17:23:24.184Z,6.77
2019-06-01T17:25:38.491Z,6.13
2019-06-01T17:28:07.308Z,4.20
2019-06-01T17:30:36.186Z,6.27
2019-06-01T17:33:06.525Z,4.33
2019-06-01T17:35:36.342Z,6.70
2019-06-01T17:38:07.455Z,4.83
2019-06-01T17:40:41.382Z,5.90
2019-06-01T17:43:08.784Z,6.87
2019-06-01T17:45:39.175Z,9.13
2019-06-01T17:48:24.808Z,5.80
2019-06-01T17:50:42.476Z,6.12
2019-06-01T17:53:11.265Z,5.30
2019-06-01T17:55:40.475Z,4.67
2019-06-01T17:58:12.532Z,8.53
2019-06-01T18:00:42.604Z,4.10
2019-06-01T18:03:12.454Z,5.40
2019-06-01T18:05:41.298Z,4.30
2019-06-01T18:08:10.498Z,4.37
2019-06-01T18:10:53.148Z,5.10
2019-06-01T18:13:13.316Z,8.45
2019-06-01T18:15:42.111Z,5.13
2019-06-01T18:18:11.005Z,3.98
2019-06-01T18:20:40.033Z,5.40
2019-06-01T18:23:10.179Z,3.07
2019-06-01T18:25:39.756Z,6.43
2019-06-01T18:28:15.048Z,3.70
2019-06-01T18:30:39.652Z,7.03
2019-06-01T18:33:09.053Z,5.50
2019-06-01T18:35:38.006Z,7.77
2019-06-01T18:38:07.814Z,6.13
2019-06-01T18:40:37.199Z,7.73
2019-06-01T18:43:12.202Z,4.87
2019-06-01T18:45:41.707Z,4.07
2019-06-01T18:48:14.457Z,3.70
2019-06-01T18:50:44.620Z,3.87
2019-06-01T18:53:14.180Z,5.08
2019-06-01T18:55:43.969Z,4.80
2019-06-01T18:58:14.805Z,4.20
2019-06-01T19:00:47.988Z,7.03
2019-06-01T19:03:18.833Z,12.47
2019-06-01T19:05:47.986Z,4.03
2019-06-01T19:08:17.709Z,5.15
2019-06-01T19:10:48.250Z,3.37
2019-06-01T19:13:17.925Z,5.83
2019-06-01T19:15:47.026Z,7.30
2019-06-01T19:18:17.066Z,4.80
2019-06-01T19:20:48.587Z,4.60
2019-06-01T19:23:21.682Z,4.73
2019-06-01T19:25:48.367Z,5.30
2019-06-01T19:28:17.810Z,5.47
2019-06-01T19:30:48.582Z,3.77
2019-06-01T19:33:19.415Z,5.50
2019-06-01T19:35:50.316Z,6.73
2019-06-01T19:38:21.942Z,3.93
2019-06-01T19:40:50.703Z,6.47
2019-06-01T19:43:19.718Z,12.73
2019-06-01T19:45:49.489Z,13.17
2019-06-01T19:48:18.958Z,8.47
2019-06-01T19:50:48.484Z,6.53
2019-06-01T19:53:32.493Z,10.60
2019-06-01T19:55:56.979Z,7.70
2019-06-01T19:58:35.772Z,10.17
2019-06-01T20:01:12.357Z,9.37
2019-06-01T20:03:41.501Z,12.63
2019-06-01T20:06:15.386Z,13.80
2019-06-01T20:08:44.661Z,13.90
2019-06-01T20:11:13.635Z,13.30
2019-06-01T20:13:42.835Z,11.60
2019-06-01T20:16:14.728Z,15.23
2019-06-01T20:18:43.930Z,12.60
2019-06-01T20:21:13.869Z,12.20
2019-06-01T20:23:43.125Z,12.07
2019-06-01T20:26:13.188Z,7.77
2019-06-01T20:28:42.307Z,13.20
2019-06-01T20:31:13.742Z,11.23
2019-06-01T20:33:43.760Z,10.43
2019-06-01T20:36:13.909Z,11.33
2019-06-01T20:38:43.569Z,9.23
2019-06-01T20:41:13.267Z,8.37
2019-06-01T20:43:43.593Z,12.53
2019-06-01T20:46:14.601Z,11.50
2019-06-01T20:48:43.870Z,16.97
2019-06-01T20:51:14.625Z,16.30
2019-06-01T20:53:44.697Z,11.83
2019-06-01T20:56:13.522Z,15.50
2019-06-01T20:58:42.279Z,13.40
2019-06-01T21:01:13.897Z,12.18
2019-06-01T21:03:43.426Z,14.50
2019-06-01T21:06:13.751Z,12.70
2019-06-01T21:08:43.946Z,10.97
2019-06-01T21:11:13.921Z,12.45
2019-06-01T21:13:44.159Z,17.63
2019-06-01T21:16:14.072Z,11.50
2019-06-01T21:18:43.246Z,10.30
2019-06-01T21:21:12.026Z,17.00
2019-06-01T21:23:41.003Z,12.13
2019-06-01T21:26:09.764Z,12.13
2019-06-01T21:28:38.575Z,14.67
2019-06-01T21:31:07.622Z,14.70
2019-06-01T21:33:36.430Z,18.63
2019-06-01T21:36:15.337Z,13.30
2019-06-01T21:38:49.555Z,19.93
2019-06-01T21:41:25.747Z,13.10
2019-06-01T21:44:06.755Z,11.60
2019-06-01T21:46:38.895Z,20.13
2019-06-01T21:49:08.071Z,20.60
2019-06-01T21:51:36.835Z,21.70
2019-06-01T21:54:05.931Z,13.07
2019-06-01T21:56:34.703Z,17.20
2019-06-01T21:59:03.513Z,14.30
2019-06-01T22:01:34.971Z,19.00
2019-06-01T22:04:07.487Z,13.43
2019-06-01T22:06:39.411Z,16.90
2019-06-01T22:09:12.659Z,14.77
2019-06-01T22:11:42.237Z,14.43
2019-06-01T22:14:11.947Z,13.95
2019-06-01T22:16:40.810Z,16.93
2019-06-01T22:19:17.561Z,17.17
2019-06-01T22:21:47.696Z,17.50
2019-06-01T22:24:17.677Z,17.55
2019-06-01T22:26:47.151Z,19.23
2019-06-01T22:29:15.967Z,14.90
2019-06-01T22:31:44.758Z,16.97
2019-06-01T22:34:13.505Z,16.40
2019-06-01T22:36:42.319Z,16.23
2019-06-01T22:39:11.074Z,18.90
2019-06-01T22:41:39.849Z,20.10
2019-06-01T22:44:08.734Z,22.23
2019-06-01T22:46:37.496Z,19.50
2019-06-01T22:49:06.403Z,23.73
2019-06-01T22:51:35.155Z,23.03
2019-06-01T22:54:04.012Z,20.37
2019-06-01T22:56:32.851Z,19.00
2019-06-01T22:59:01.635Z,18.60
2019-06-01T23:01:30.433Z,22.03
2019-06-01T23:03:59.319Z,19.80
2019-06-01T23:06:29.218Z,27.67
2019-06-01T23:08:58.541Z,25.40
2019-06-01T23:11:27.555Z,31.23
2019-06-01T23:13:56.372Z,36.93
2019-06-01T23:16:25.601Z,20.77
2019-06-01T23:18:54.863Z,21.67
2019-06-01T23:21:23.789Z,21.33
2019-06-01T23:23:52.567Z,26.33
2019-06-01T23:26:22.103Z,19.95
2019-06-01T23:28:51.967Z,20.83
2019-06-01T23:31:22.317Z,24.93
2019-06-01T23:33:51.227Z,23.47
2019-06-01T23:36:22.393Z,21.13
2019-06-01T23:38:52.206Z,23.00
2019-06-01T23:41:22.453Z,22.10
2019-06-01T23:44:09.913Z,23.23
2019-06-01T23:46:24.919Z,21.87
2019-06-01T23:48:54.511Z,26.30
2019-06-01T23:51:23.488Z,29.70
2019-06-01T23:53:52.282Z,25.83
2019-06-01T23:56:21.063Z,22.10
2019-06-01T23:58:49.861Z,32.10
